Time;durP1;ratioP1;P1;durP2;ratioP2;P2;SDS_P1;SDS_P2;PMS_P1;PMS_P2;Temp;Humidity;BMP_temperature;BMP_pressure;BME280_temperature;BME280_humidity;BME280_pressure;Samples;Min_cycle;Max_cycle;Signal;HPM_P1;HPM_P2
2024/01/05 00:01:08;;;;;;;4.20;1.40;;;3.20;99.90;;;;;;5013216;28;20274;-70
2024/01/05 00:03:33;;;;;;;14.80;2.10;;;3.30;99.90;;;;;;5020008;28;20485;-70
2024/01/05 00:05:59;;;;;;;9.73;2.30;;;3.30;99.90;;;;;;5005903;28;20206;-70
2024/01/05 00:08:24;;;;;;;15.27;2.67;;;3.30;99.90;;;;;;5027875;28;20531;-76
2024/01/05 00:10:50;;;;;;;3.73;1.17;;;3.30;99.90;;;;;;5020574;28;20179;-72
2024/01/05 00:13:15;;;;;;;5.53;1.50;;;3.30;99.90;;;;;;5027345;28;20739;-72
2024/01/05 00:15:40;;;;;;;3.83;1.57;;;3.70;99.90;;;;;;5014667;28;20183;-72
2024/01/05 00:18:06;;;;;;;3.20;1.80;;;4.00;99.90;;;;;;5015306;28;20539;-72
2024/01/05 00:20:32;;;;;;;2.20;1.27;;;3.20;99.90;;;;;;5034198;28;20185;-72
2024/01/05 00:22:57;;;;;;;6.30;1.70;;;3.20;99.90;;;;;;5012366;28;20647;-72
2024/01/05 00:25:23;;;;;;;3.77;1.53;;;3.20;99.90;;;;;;5033736;28;20179;-72
2024/01/05 00:27:52;;;;;;;5.80;1.53;;;3.10;99.90;;;;;;5021369;28;20185;-72
2024/01/05 00:30:18;;;;;;;2.83;1.20;;;3.10;99.90;;;;;;5033818;28;20492;-72
2024/01/05 00:32:44;;;;;;;5.57;1.40;;;3.10;99.90;;;;;;5013871;28;20536;-72
2024/01/05 00:35:09;;;;;;;2.67;1.03;;;3.00;99.90;;;;;;5024486;28;20308;-72
2024/01/05 00:37:35;;;;;;;7.97;1.40;;;3.00;99.90;;;;;;5027727;28;20182;-72
2024/01/05 00:40:01;;;;;;;3.77;1.60;;;4.30;99.90;;;;;;5013901;28;20507;-72
2024/01/05 00:42:26;;;;;;;3.53;1.10;;;3.00;99.90;;;;;;5018750;28;20229;-70
2024/01/05 00:44:52;;;;;;;2.97;1.33;;;3.00;99.90;;;;;;5020134;28;20207;-70
2024/01/05 00:47:17;;;;;;;4.77;1.50;;;4.40;99.90;;;;;;5025673;28;20182;-70
2024/01/05 00:49:43;;;;;;;1.90;0.67;;;2.90;99.90;;;;;;5020390;28;20720;-70
2024/01/05 00:52:08;;;;;;;4.27;1.63;;;2.90;99.90;;;;;;5012065;28;20634;-70
2024/01/05 00:54:34;;;;;;;4.23;1.00;;;2.90;99.90;;;;;;5021299;28;20248;-70
2024/01/05 00:56:59;;;;;;;4.60;1.40;;;3.60;99.90;;;;;;5011600;28;20391;-70
2024/01/05 00:59:25;;;;;;;3.97;1.30;;;2.90;99.90;;;;;;5020848;28;20663;-69
2024/01/05 01:01:51;;;;;;;3.90;1.20;;;2.90;99.90;;;;;;5008249;28;20731;-70
2024/01/05 01:04:16;;;;;;;12.30;2.33;;;2.80;99.90;;;;;;5005952;28;20207;-70
2024/01/05 01:06:42;;;;;;;6.20;1.90;;;4.10;99.90;;;;;;5004196;28;20434;-70
2024/01/05 01:09:08;;;;;;;3.40;1.30;;;2.80;99.90;;;;;;5000731;28;20226;-69
2024/01/05 01:11:33;;;;;;;11.53;2.43;;;2.80;99.90;;;;;;5011325;28;20242;-72
2024/01/05 01:13:59;;;;;;;2.83;1.30;;;4.00;99.90;;;;;;4996103;28;20572;-73
2024/01/05 01:16:24;;;;;;;6.50;1.73;;;4.20;99.90;;;;;;5016435;28;20639;-70
2024/01/05 01:18:50;;;;;;;3.37;1.80;;;2.80;99.90;;;;;;5029750;28;20193;-68
2024/01/05 01:21:16;;;;;;;6.30;1.80;;;2.80;99.90;;;;;;5008943;28;20326;-68
2024/01/05 01:23:41;;;;;;;4.57;1.97;;;2.80;99.90;;;;;;4997613;28;20544;-68
2024/01/05 01:26:07;;;;;;;4.13;1.73;;;2.90;99.90;;;;;;5011425;28;20214;-69
2024/01/05 01:28:32;;;;;;;12.00;2.13;;;2.90;99.90;;;;;;5026901;28;20594;-71
2024/01/05 01:30:58;;;;;;;8.37;1.70;;;3.60;99.90;;;;;;5009494;28;20258;-71
2024/01/05 01:33:24;;;;;;;2.33;1.10;;;3.00;99.90;;;;;;5024031;28;20272;-71
2024/01/05 01:35:49;;;;;;;6.17;1.97;;;2.00;99.90;;;;;;5031990;28;20232;-71
2024/01/05 01:38:14;;;;;;;5.00;1.47;;;3.00;99.90;;;;;;5026173;28;20183;-68
2024/01/05 01:40:47;;;;;;;3.60;1.70;;;3.00;99.90;;;;;;5009825;28;20180;-68
2024/01/05 01:43:25;;;;;;;8.03;2.00;;;3.10;99.90;;;;;;5021678;28;20675;-71
2024/01/05 01:45:52;;;;;;;2.27;1.23;;;3.10;99.90;;;;;;4995535;28;20733;-71
2024/01/05 01:48:19;;;;;;;5.80;1.97;;;4.10;99.90;;;;;;5018241;28;20405;-68
2024/01/05 01:50:45;;;;;;;2.03;1.37;;;3.20;99.90;;;;;;5027754;28;20913;-68
2024/01/05 01:53:13;;;;;;;4.87;1.80;;;3.20;99.90;;;;;;5007428;28;20419;-68
2024/01/05 01:55:40;;;;;;;4.03;0.93;;;3.30;99.90;;;;;;5016657;28;20451;-68
2024/01/05 01:58:06;;;;;;;5.67;1.37;;;3.60;99.90;;;;;;5030106;28;20461;-68
2024/01/05 02:00:32;;;;;;;2.80;1.27;;;3.50;99.90;;;;;;5004409;28;20508;-68
2024/01/05 02:03:00;;;;;;;4.93;0.80;;;3.50;99.90;;;;;;5020002;28;20505;-68
2024/01/05 02:05:25;;;;;;;6.47;1.57;;;3.60;99.90;;;;;;5029504;28;20178;-68
2024/01/05 02:07:52;;;;;;;9.87;1.57;;;3.70;99.90;;;;;;5012683;28;21057;-71
2024/01/05 02:10:18;;;;;;;8.17;1.87;;;3.80;99.90;;;;;;5031104;28;20538;-71
2024/01/05 02:12:43;;;;;;;4.80;1.83;;;3.90;99.90;;;;;;5018349;28;20418;-71
2024/01/05 02:15:09;;;;;;;2.17;1.37;;;4.10;99.90;;;;;;5010312;28;20750;-71
2024/01/05 02:17:34;;;;;;;5.17;1.10;;;5.00;99.90;;;;;;5011917;28;20639;-71
2024/01/05 02:20:01;;;;;;;13.73;1.37;;;4.30;99.90;;;;;;5012788;28;20191;-71
2024/01/05 02:22:29;;;;;;;4.97;1.63;;;4.40;99.90;;;;;;5019551;28;20219;-68
2024/01/05 02:24:58;;;;;;;3.30;1.60;;;5.40;99.90;;;;;;5008486;28;20492;-68
2024/01/05 02:27:25;;;;;;;17.17;1.87;;;4.40;99.90;;;;;;5026129;28;20425;-68
2024/01/05 02:29:50;;;;;;;6.50;1.33;;;4.40;99.90;;;;;;5026693;28;20429;-68
2024/01/05 02:32:17;;;;;;;13.70;1.70;;;4.50;99.90;;;;;;5018320;28;20472;-71
2024/01/05 02:34:42;;;;;;;2.30;0.97;;;5.30;99.90;;;;;;5013043;28;20585;-71
2024/01/05 02:37:08;;;;;;;10.03;1.07;;;4.50;99.90;;;;;;5019410;28;20429;-71
2024/01/05 02:39:34;;;;;;;5.37;0.93;;;4.50;99.90;;;;;;5028155;28;20189;-71
2024/01/05 02:41:59;;;;;;;2.43;0.90;;;4.60;99.90;;;;;;5014481;28;20434;-71
2024/01/05 02:44:25;;;;;;;11.70;1.77;;;4.60;99.90;;;;;;5016062;28;20210;-71
2024/01/05 02:46:51;;;;;;;2.33;1.03;;;4.60;99.90;;;;;;5015858;28;20193;-71
2024/01/05 02:49:16;;;;;;;7.87;1.20;;;5.20;99.90;;;;;;5012717;28;20656;-71
2024/01/05 02:51:42;;;;;;;14.70;1.40;;;4.70;99.90;;;;;;5017232;28;20510;-69
2024/01/05 02:54:08;;;;;;;4.50;1.17;;;4.60;99.90;;;;;;5004773;28;20263;-69
2024/01/05 02:56:34;;;;;;;2.80;0.90;;;4.70;99.90;;;;;;5003182;28;20426;-69
2024/01/05 02:59:00;;;;;;;1.17;0.53;;;4.70;99.90;;;;;;5026560;28;21933;-68
2024/01/05 03:01:25;;;;;;;4.13;1.23;;;4.80;99.90;;;;;;5015364;28;20191;-68
2024/01/05 03:03:51;;;;;;;9.57;1.73;;;5.90;99.90;;;;;;5025273;28;20210;-68
2024/01/05 03:06:18;;;;;;;6.50;1.30;;;4.90;99.90;;;;;;5011218;28;20191;-69
2024/01/05 03:08:44;;;;;;;5.20;1.30;;;4.80;99.90;;;;;;5013412;28;20537;-69
2024/01/05 03:11:10;;;;;;;9.07;1.23;;;5.40;99.90;;;;;;5009965;28;20450;-70
2024/01/05 03:13:36;;;;;;;3.87;1.33;;;4.90;99.90;;;;;;5027923;28;20887;-71
2024/01/05 03:16:02;;;;;;;3.47;1.27;;;4.90;99.90;;;;;;5020147;28;20571;-71
2024/01/05 03:18:27;;;;;;;1.90;1.00;;;4.90;99.90;;;;;;5015660;28;20183;-71
2024/01/05 03:20:53;;;;;;;6.50;1.67;;;5.30;99.90;;;;;;5015065;28;20915;-71
2024/01/05 03:23:18;;;;;;;3.10;0.97;;;4.80;99.90;;;;;;5027894;28;20306;-68
2024/01/05 03:25:45;;;;;;;5.43;1.53;;;4.80;99.90;;;;;;5018861;28;20940;-69
2024/01/05 03:28:10;;;;;;;1.90;1.03;;;4.90;99.90;;;;;;5034561;28;20229;-71
2024/01/05 03:30:37;;;;;;;2.40;0.90;;;5.40;99.90;;;;;;5023710;28;20895;-70
2024/01/05 03:33:03;;;;;;;6.30;1.27;;;4.90;99.90;;;;;;5014651;28;20195;-70
2024/01/05 03:35:29;;;;;;;2.20;1.00;;;4.90;99.90;;;;;;5023998;28;20413;-70
2024/01/05 03:37:55;;;;;;;2.60;1.00;;;4.90;99.90;;;;;;5014892;28;20417;-72
2024/01/05 03:40:20;;;;;;;3.43;0.80;;;5.00;99.90;;;;;;5030308;28;20301;-70
2024/01/05 03:42:46;;;;;;;1.80;0.90;;;5.20;99.90;;;;;;5025392;28;20175;-70
2024/01/05 03:45:11;;;;;;;2.10;0.87;;;5.30;99.90;;;;;;5027581;28;20210;-72
2024/01/05 03:47:37;;;;;;;3.13;1.27;;;5.30;99.90;;;;;;5018522;28;20186;-71
2024/01/05 03:50:03;;;;;;;3.03;1.33;;;5.30;99.90;;;;;;5013395;28;20198;-70
2024/01/05 03:52:29;;;;;;;5.67;1.67;;;5.30;99.90;;;;;;5011743;28;20233;-72
2024/01/05 03:54:55;;;;;;;1.60;0.60;;;5.30;99.90;;;;;;5019411;28;20578;-72
2024/01/05 03:57:23;;;;;;;3.80;0.90;;;5.40;99.90;;;;;;5032437;28;20472;-70
2024/01/05 03:59:49;;;;;;;3.83;1.10;;;5.80;99.90;;;;;;5011752;28;20175;-70
2024/01/05 04:02:15;;;;;;;2.40;1.37;;;5.40;99.90;;;;;;5019221;28;20423;-69
2024/01/05 04:04:40;;;;;;;2.43;0.80;;;5.30;99.90;;;;;;5012731;28;20512;-70
2024/01/05 04:07:06;;;;;;;2.40;1.07;;;5.40;99.90;;;;;;5005315;28;20180;-70
2024/01/05 04:09:32;;;;;;;2.20;0.97;;;5.40;99.90;;;;;;5016842;28;20183;-70
2024/01/05 04:11:58;;;;;;;12.83;0.90;;;5.40;99.90;;;;;;5012332;28;20628;-70
2024/01/05 04:14:24;;;;;;;3.53;1.10;;;5.40;99.90;;;;;;5016607;28;20614;-70
2024/01/05 04:16:49;;;;;;;1.73;0.90;;;5.40;99.90;;;;;;5027152;28;20182;-70
2024/01/05 04:19:15;;;;;;;6.13;1.00;;;5.90;99.90;;;;;;5018837;28;20425;-70
2024/01/05 04:21:41;;;;;;;3.33;1.23;;;5.40;99.90;;;;;;5023534;28;20741;-72
2024/01/05 04:24:07;;;;;;;7.03;0.90;;;5.50;99.90;;;;;;5019520;28;20214;-72
2024/01/05 04:26:32;;;;;;;3.33;1.23;;;5.50;99.90;;;;;;5017622;28;20421;-70
2024/01/05 04:28:58;;;;;;;10.00;1.43;;;6.20;99.90;;;;;;5015678;28;20643;-70
2024/01/05 04:31:23;;;;;;;2.13;0.90;;;5.40;99.90;;;;;;5023126;28;20265;-70
2024/01/05 04:33:49;;;;;;;1.20;0.50;;;5.40;99.90;;;;;;5012263;28;20661;-70
2024/01/05 04:36:18;;;;;;;4.70;0.97;;;5.40;99.90;;;;;;5021373;28;20249;-70
2024/01/05 04:38:44;;;;;;;9.40;0.73;;;5.40;99.90;;;;;;5023550;28;20232;-70
2024/01/05 04:41:11;;;;;;;2.30;0.90;;;5.40;99.90;;;;;;5013310;28;20453;-70
2024/01/05 04:43:37;;;;;;;4.13;1.23;;;6.00;99.90;;;;;;5015764;28;20210;-70
2024/01/05 04:46:04;;;;;;;3.70;1.13;;;5.50;99.90;;;;;;5011828;28;20427;-70
2024/01/05 04:48:30;;;;;;;1.70;0.73;;;5.50;99.90;;;;;;5013213;28;20187;-72
2024/01/05 04:50:56;;;;;;;9.43;1.60;;;6.30;99.90;;;;;;5019270;28;20429;-72
2024/01/05 04:53:21;;;;;;;1.93;0.80;;;5.40;99.90;;;;;;5013007;28;20298;-72
2024/01/05 04:55:47;;;;;;;7.00;0.60;;;5.40;99.90;;;;;;5014218;28;20183;-72
2024/01/05 04:58:12;;;;;;;3.43;0.70;;;5.40;99.90;;;;;;5027201;28;20230;-72
2024/01/05 05:00:38;;;;;;;9.33;1.40;;;5.40;99.90;;;;;;5024160;28;20620;-72
2024/01/05 05:03:03;;;;;;;2.43;1.10;;;6.00;99.90;;;;;;5012220;28;20197;-70
2024/01/05 05:05:29;;;;;;;2.40;1.20;;;5.40;99.90;;;;;;5022197;28;20253;-70
2024/01/05 05:07:54;;;;;;;2.23;0.67;;;5.40;99.90;;;;;;5016660;28;20285;-70
2024/01/05 05:10:22;;;;;;;6.00;1.40;;;5.30;99.90;;;;;;5011349;28;20661;-69
2024/01/05 05:12:48;;;;;;;4.53;0.90;;;5.30;99.90;;;;;;5023463;28;20560;-70
2024/01/05 05:15:13;;;;;;;4.03;0.90;;;5.20;99.90;;;;;;5013172;28;20430;-70
2024/01/05 05:17:39;;;;;;;5.53;0.87;;;5.20;99.90;;;;;;5019096;23;20576;-70
2024/01/05 05:20:04;;;;;;;1.50;0.53;;;5.20;99.90;;;;;;4991884;28;20519;-70
2024/01/05 05:22:30;;;;;;;2.40;1.07;;;5.20;99.90;;;;;;4991222;28;20180;-70
2024/01/05 05:24:55;;;;;;;3.53;1.10;;;5.30;99.90;;;;;;4991478;28;20207;-69
2024/01/05 05:27:21;;;;;;;1.83;0.80;;;5.20;99.90;;;;;;4991599;28;20183;-70
2024/01/05 05:29:47;;;;;;;3.00;0.73;;;5.20;99.90;;;;;;4991867;28;20192;-69
2024/01/05 05:32:13;;;;;;;1.20;0.60;;;6.30;99.90;;;;;;4991591;28;20183;-69
2024/01/05 05:34:40;;;;;;;2.23;0.90;;;6.20;99.90;;;;;;4991760;28;20427;-69
2024/01/05 05:37:06;;;;;;;2.23;0.83;;;5.30;99.90;;;;;;4991510;28;20211;-72
2024/01/05 05:39:31;;;;;;;2.63;1.20;;;5.30;99.90;;;;;;4993063;28;20462;-72
2024/01/05 05:41:57;;;;;;;3.83;0.87;;;5.30;99.90;;;;;;4985441;28;20187;-72
2024/01/05 05:44:22;;;;;;;2.60;0.73;;;5.20;99.90;;;;;;4992790;28;20207;-72
2024/01/05 05:46:48;;;;;;;2.70;1.03;;;5.70;99.90;;;;;;4991974;28;20192;-70
2024/01/05 05:49:13;;;;;;;5.33;1.67;;;6.10;99.90;;;;;;4991491;28;20200;-70
2024/01/05 05:51:39;;;;;;;2.27;1.00;;;5.30;99.90;;;;;;4990882;28;20241;-70
2024/01/05 05:54:04;;;;;;;2.73;1.13;;;5.20;99.90;;;;;;4991369;28;20253;-70
2024/01/05 05:56:30;;;;;;;4.33;1.10;;;5.20;99.90;;;;;;4991062;28;20625;-71
2024/01/05 05:58:55;;;;;;;7.90;1.97;;;6.40;99.90;;;;;;4991356;28;20188;-68
2024/01/05 06:01:21;;;;;;;3.70;0.90;;;5.30;99.90;;;;;;5004641;28;20635;-71
2024/01/05 06:03:46;;;;;;;5.50;1.43;;;5.20;99.90;;;;;;4992521;28;20207;-71
2024/01/05 06:06:19;;;;;;;1.80;0.70;;;6.40;99.90;;;;;;4992551;28;20649;-69
2024/01/05 06:08:45;;;;;;;2.27;0.97;;;5.10;99.90;;;;;;4988884;28;20212;-69
2024/01/05 06:11:14;;;;;;;3.97;1.10;;;5.10;99.90;;;;;;4994402;28;20505;-69
2024/01/05 06:13:39;;;;;;;1.37;0.63;;;6.40;99.90;;;;;;4991056;28;20183;-69
2024/01/05 06:16:05;;;;;;;3.37;1.30;;;5.20;99.90;;;;;;4994923;28;20900;-69
2024/01/05 06:18:30;;;;;;;2.23;1.20;;;5.20;99.90;;;;;;4994703;28;20231;-70
2024/01/05 06:20:56;;;;;;;9.63;1.47;;;6.20;99.90;;;;;;4994438;28;20200;-70
2024/01/05 06:23:21;;;;;;;4.53;0.93;;;6.00;99.90;;;;;;4994720;28;20587;-70
2024/01/05 06:25:47;;;;;;;1.70;0.97;;;6.10;99.90;;;;;;4993072;28;20183;-70
2024/01/05 06:28:12;;;;;;;5.00;0.90;;;6.40;99.90;;;;;;4996128;28;20188;-72
2024/01/05 06:30:38;;;;;;;2.00;1.17;;;5.00;99.90;;;;;;4996208;28;20176;-72
2024/01/05 06:33:03;;;;;;;2.03;1.10;;;5.00;99.90;;;;;;4995984;28;20544;-72
2024/01/05 06:35:29;;;;;;;2.53;0.80;;;5.00;99.90;;;;;;5005535;28;20189;-72
2024/01/05 06:37:54;;;;;;;4.77;0.80;;;6.00;99.90;;;;;;5003165;28;20187;-72
2024/01/05 06:40:20;;;;;;;10.87;1.10;;;5.10;99.90;;;;;;5015431;28;20179;-72
2024/01/05 06:42:46;;;;;;;2.80;0.93;;;6.20;99.90;;;;;;5015960;28;20648;-72
2024/01/05 06:45:11;;;;;;;6.63;0.97;;;5.10;99.90;;;;;;5015152;28;20586;-72
2024/01/05 06:47:37;;;;;;;3.80;1.07;;;5.00;99.90;;;;;;5009729;28;20230;-72
2024/01/05 06:50:02;;;;;;;4.57;0.80;;;6.20;99.90;;;;;;5002459;28;20187;-72
2024/01/05 06:52:28;;;;;;;1.30;0.80;;;5.00;99.90;;;;;;4998542;28;20187;-70
2024/01/05 06:54:53;;;;;;;3.60;0.83;;;5.10;99.90;;;;;;4995056;28;20192;-70
2024/01/05 06:57:19;;;;;;;4.83;1.37;;;5.10;99.90;;;;;;4997274;28;20184;-72
2024/01/05 06:59:44;;;;;;;2.23;1.27;;;5.10;99.90;;;;;;4995365;28;20358;-72
2024/01/05 07:02:11;;;;;;;1.97;0.90;;;5.10;99.90;;;;;;4993509;28;20196;-72
2024/01/05 07:04:36;;;;;;;6.40;0.80;;;5.10;99.90;;;;;;5008115;28;20215;-72
2024/01/05 07:07:02;;;;;;;3.10;1.47;;;5.20;99.90;;;;;;5014765;28;20786;-72
2024/01/05 07:09:27;;;;;;;2.20;1.30;;;5.10;99.90;;;;;;4996732;28;20194;-72
2024/01/05 07:11:53;;;;;;;3.43;0.90;;;5.20;99.90;;;;;;5002349;28;20179;-70
2024/01/05 07:14:18;;;;;;;6.43;1.30;;;5.10;99.90;;;;;;4999591;28;20188;-70
2024/01/05 07:16:44;;;;;;;4.23;1.80;;;6.20;99.90;;;;;;5000182;28;20195;-70
2024/01/05 07:19:09;;;;;;;3.40;0.90;;;5.10;99.90;;;;;;4993917;28;20669;-70
2024/01/05 07:21:40;;;;;;;4.37;1.50;;;5.10;99.90;;;;;;5004789;28;20192;-70
2024/01/05 07:24:06;;;;;;;5.70;2.07;;;5.70;99.90;;;;;;5000494;28;20219;-69
2024/01/05 07:26:32;;;;;;;3.50;1.50;;;5.20;99.90;;;;;;4975880;28;20919;-70
2024/01/05 07:28:58;;;;;;;3.80;1.73;;;5.10;99.90;;;;;;4978059;28;20669;-70
2024/01/05 07:31:23;;;;;;;12.40;1.60;;;5.10;99.90;;;;;;5005092;28;20513;-72
2024/01/05 07:33:49;;;;;;;10.13;1.47;;;5.00;99.90;;;;;;5009372;28;20191;-72
2024/01/05 07:36:14;;;;;;;3.30;1.53;;;4.90;99.90;;;;;;5006329;28;20249;-72
2024/01/05 07:38:40;;;;;;;3.80;1.47;;;5.20;99.90;;;;;;4994977;28;20269;-72
2024/01/05 07:41:06;;;;;;;8.60;1.67;;;4.70;99.90;;;;;;4995157;28;20207;-72
2024/01/05 07:43:32;;;;;;;8.40;1.43;;;4.60;99.90;;;;;;5004237;28;20208;-72
2024/01/05 07:45:58;;;;;;;6.30;2.27;;;4.60;99.90;;;;;;5014349;28;20775;-72
2024/01/05 07:48:23;;;;;;;2.23;1.20;;;4.60;99.90;;;;;;4998118;28;20176;-70
2024/01/05 07:50:49;;;;;;;4.33;1.67;;;4.50;99.90;;;;;;4999261;28;20205;-70
2024/01/05 07:53:15;;;;;;;5.23;1.33;;;4.50;99.90;;;;;;5013311;28;20190;-72
2024/01/05 07:55:41;;;;;;;7.30;2.43;;;4.50;99.90;;;;;;5006408;28;20183;-72
2024/01/05 07:58:07;;;;;;;4.70;1.73;;;4.50;99.90;;;;;;5000660;28;20188;-72
2024/01/05 08:00:32;;;;;;;1.67;1.20;;;4.50;99.90;;;;;;4994862;28;20446;-71
2024/01/05 08:02:58;;;;;;;4.60;2.10;;;5.40;99.90;;;;;;4986975;28;20629;-71
2024/01/05 08:05:23;;;;;;;4.40;1.20;;;4.50;99.90;;;;;;4993627;28;20231;-71
2024/01/05 08:07:49;;;;;;;3.40;1.30;;;4.50;99.90;;;;;;4991023;28;20179;-71
2024/01/05 08:10:15;;;;;;;5.80;1.80;;;4.60;99.90;;;;;;4988961;28;20188;-71
2024/01/05 08:12:40;;;;;;;3.80;1.40;;;4.60;99.90;;;;;;4994122;28;20227;-72
2024/01/05 08:15:06;;;;;;;3.73;1.73;;;4.70;99.90;;;;;;5001585;28;20565;-72
2024/01/05 08:17:32;;;;;;;2.40;1.10;;;4.70;99.90;;;;;;5007372;28;20227;-70
2024/01/05 08:19:57;;;;;;;6.03;1.50;;;4.70;99.90;;;;;;4992723;28;20465;-71
2024/01/05 08:22:25;;;;;;;5.07;1.40;;;5.10;99.90;;;;;;4984931;28;20196;-70
2024/01/05 08:24:50;;;;;;;3.20;1.30;;;4.80;99.90;;;;;;4991225;28;20196;-70
2024/01/05 08:27:16;;;;;;;3.80;1.40;;;4.90;99.90;;;;;;4992367;28;20434;-70
2024/01/05 08:29:41;;;;;;;9.60;1.10;;;4.90;99.90;;;;;;5006364;28;20207;-70
2024/01/05 08:32:07;;;;;;;5.03;1.70;;;5.00;99.90;;;;;;5010043;28;20179;-71
2024/01/05 08:34:32;;;;;;;3.00;1.20;;;5.10;99.90;;;;;;4996713;28;20210;-71
2024/01/05 08:36:58;;;;;;;5.13;2.20;;;5.10;99.90;;;;;;4993080;28;20618;-70
2024/01/05 08:39:23;;;;;;;9.83;4.60;;;5.10;99.90;;;;;;4985491;28;20311;-71
2024/01/05 08:41:49;;;;;;;7.17;2.53;;;5.10;99.90;;;;;;4985778;28;20512;-71
2024/01/05 08:44:14;;;;;;;5.27;1.67;;;5.60;99.90;;;;;;4985886;28;20199;-70
2024/01/05 08:46:41;;;;;;;3.83;2.20;;;5.10;99.90;;;;;;4991462;28;20323;-71
2024/01/05 08:49:06;;;;;;;4.17;1.73;;;5.00;99.90;;;;;;4993395;28;20179;-71
2024/01/05 08:51:32;;;;;;;4.17;2.07;;;5.10;99.90;;;;;;5002260;28;20421;-70
2024/01/05 08:53:59;;;;;;;4.23;2.37;;;5.00;99.90;;;;;;4980786;28;20187;-71
2024/01/05 08:56:24;;;;;;;5.77;2.23;;;5.00;99.90;;;;;;4983063;28;20200;-71
2024/01/05 08:58:51;;;;;;;4.90;1.97;;;5.00;99.90;;;;;;4991784;28;20478;-71
2024/01/05 09:01:16;;;;;;;2.17;1.47;;;5.00;99.90;;;;;;4991268;28;20584;-71
2024/01/05 09:03:42;;;;;;;3.20;1.70;;;4.90;99.90;;;;;;4999888;28;20477;-71
2024/01/05 09:06:07;;;;;;;4.07;1.70;;;5.00;99.90;;;;;;5011729;28;20189;-71
2024/01/05 09:08:33;;;;;;;7.50;1.60;;;4.90;99.90;;;;;;4975567;28;20283;-71
2024/01/05 09:10:58;;;;;;;6.03;1.87;;;5.00;99.90;;;;;;4992867;28;20190;-70
2024/01/05 09:13:24;;;;;;;7.47;2.13;;;5.00;99.90;;;;;;4995213;28;20191;-70
2024/01/05 09:15:49;;;;;;;19.00;1.70;;;5.20;99.90;;;;;;4997457;28;20184;-69
2024/01/05 09:18:15;;;;;;;11.10;2.03;;;5.20;99.90;;;;;;4999476;28;20310;-72
2024/01/05 09:20:40;;;;;;;5.10;1.63;;;5.30;99.90;;;;;;4997240;28;20189;-70
2024/01/05 09:23:06;;;;;;;2.90;0.80;;;5.40;99.90;;;;;;4985868;28;20200;-70
2024/01/05 09:25:32;;;;;;;4.47;1.03;;;5.50;99.90;;;;;;4990318;28;20510;-70
2024/01/05 09:28:01;;;;;;;2.10;0.93;;;5.50;99.90;;;;;;4991703;28;20654;-70
2024/01/05 09:30:26;;;;;;;8.73;1.77;;;5.60;99.90;;;;;;4997262;28;20427;-70
2024/01/05 09:32:52;;;;;;;3.77;1.17;;;5.70;99.90;;;;;;4999583;28;20458;-71
2024/01/05 09:35:18;;;;;;;2.70;1.07;;;5.70;99.90;;;;;;4996918;28;20715;-70
2024/01/05 09:37:43;;;;;;;7.13;1.47;;;5.80;99.90;;;;;;4982714;28;20311;-70
2024/01/05 09:40:10;;;;;;;4.80;1.00;;;5.90;99.90;;;;;;4981153;28;20194;-70
2024/01/05 09:42:39;;;;;;;1.60;1.17;;;5.90;99.90;;;;;;4987397;28;20577;-70
2024/01/05 09:45:09;;;;;;;4.53;1.33;;;6.60;99.90;;;;;;4991411;28;20605;-70
2024/01/05 09:47:36;;;;;;;3.93;1.80;;;6.30;99.90;;;;;;5002981;28;20418;-70
2024/01/05 09:50:04;;;;;;;6.40;2.20;;;6.40;99.90;;;;;;4991289;28;20415;-70
2024/01/05 09:52:30;;;;;;;2.90;1.20;;;6.50;99.90;;;;;;5009263;28;20418;-70
2024/01/05 09:54:56;;;;;;;5.20;1.50;;;6.60;99.90;;;;;;4995688;28;20425;-70
2024/01/05 09:57:23;;;;;;;4.27;1.57;;;6.50;99.90;;;;;;5001998;28;20278;-71
2024/01/05 09:59:49;;;;;;;4.10;1.90;;;7.00;99.90;;;;;;5001452;28;20422;-71
2024/01/05 10:02:24;;;;;;;5.00;1.30;;;6.50;99.90;;;;;;4992473;28;20419;-71
2024/01/05 10:04:49;;;;;;;4.03;1.60;;;6.50;99.90;;;;;;5002858;28;20234;-71
2024/01/05 10:07:15;;;;;;;6.23;1.30;;;6.50;99.90;;;;;;4972161;28;20451;-71
2024/01/05 10:09:52;;;;;;;8.53;1.80;;;7.10;99.90;;;;;;5009408;28;20193;-71
2024/01/05 10:12:18;;;;;;;7.37;1.70;;;6.40;99.90;;;;;;5000117;28;20209;-71
2024/01/05 10:14:46;;;;;;;3.10;1.43;;;6.60;99.90;;;;;;4993136;28;20908;-71
2024/01/05 10:17:12;;;;;;;5.77;1.80;;;6.90;99.90;;;;;;4999217;28;20393;-71
2024/01/05 10:19:41;;;;;;;8.37;2.33;;;6.60;99.90;;;;;;4992512;28;20430;-71
2024/01/05 10:22:11;;;;;;;6.33;1.00;;;6.50;99.90;;;;;;4984217;28;20478;-71
2024/01/05 10:24:38;;;;;;;3.67;2.07;;;7.20;99.90;;;;;;4980626;28;20928;-71
2024/01/05 10:27:06;;;;;;;2.40;1.07;;;6.80;99.90;;;;;;5004640;28;20446;-70
2024/01/05 10:29:32;;;;;;;4.53;1.73;;;6.80;99.90;;;;;;4978207;28;20422;-70
2024/01/05 10:32:15;;;;;;;2.27;1.10;;;7.00;99.90;;;;;;4990941;28;20915;-70
2024/01/05 10:34:50;;;;;;;8.10;2.50;;;7.10;99.90;;;;;;4974192;28;20725;-70
2024/01/05 10:37:17;;;;;;;2.73;1.83;;;7.20;99.90;;;;;;5000130;28;20505;-69
2024/01/05 10:39:49;;;;;;;4.13;1.67;;;7.90;99.90;;;;;;5000356;28;20907;-70
2024/01/05 10:42:28;;;;;;;3.60;1.67;;;7.90;99.90;;;;;;4992502;28;20505;-70
2024/01/05 10:44:57;;;;;;;2.47;1.10;;;7.30;99.90;;;;;;5008074;28;20461;-70
2024/01/05 10:47:25;;;;;;;5.57;1.90;;;7.40;99.90;;;;;;4978329;28;20438;-70
2024/01/05 10:49:52;;;;;;;3.57;1.43;;;7.70;99.90;;;;;;4990614;28;20764;-70
2024/01/05 10:52:20;;;;;;;5.27;1.67;;;7.90;99.90;;;;;;4995715;28;20414;-71
2024/01/05 10:54:47;;;;;;;5.40;1.50;;;7.90;99.90;;;;;;4986513;28;20423;-71
2024/01/05 10:57:14;;;;;;;6.10;2.10;;;8.30;99.90;;;;;;4993174;28;20834;-71
2024/01/05 10:59:47;;;;;;;4.23;2.00;;;7.90;99.90;;;;;;4990946;28;20510;-71
2024/01/05 11:02:21;;;;;;;3.47;1.60;;;8.50;99.90;;;;;;4984337;28;20421;-71
2024/01/05 11:04:54;;;;;;;2.10;0.97;;;7.70;99.90;;;;;;5009131;28;20808;-71
2024/01/05 11:07:22;;;;;;;3.40;1.77;;;8.30;99.90;;;;;;5014637;28;20410;-71
2024/01/05 11:09:56;;;;;;;3.50;1.30;;;7.80;99.90;;;;;;5014938;28;20517;-71
2024/01/05 11:12:43;;;;;;;2.73;1.10;;;8.10;99.90;;;;;;5002970;28;20435;-71
2024/01/05 11:15:44;;;;;;;2.40;1.17;;;8.40;99.90;;;;;;4981511;28;20899;-70
2024/01/05 11:18:29;;;;;;;5.10;1.60;;;7.80;99.90;;;;;;4986907;28;20965;-70
2024/01/05 11:21:11;;;;;;;2.53;1.00;;;7.70;99.90;;;;;;4995045;28;20465;-70
2024/01/05 11:23:40;;;;;;;4.20;1.27;;;7.80;99.90;;;;;;4998308;28;20489;-71
2024/01/05 11:26:05;;;;;;;4.93;1.67;;;8.30;99.90;;;;;;4995389;28;20518;-71
2024/01/05 11:28:40;;;;;;;4.40;1.47;;;8.20;99.90;;;;;;4999258;28;20517;-72
2024/01/05 11:31:06;;;;;;;5.00;1.10;;;8.30;99.90;;;;;;4983639;28;20589;-72
2024/01/05 11:33:46;;;;;;;4.10;1.33;;;7.80;99.90;;;;;;5000351;28;20938;-71
2024/01/05 11:36:12;;;;;;;2.23;1.00;;;7.80;99.90;;;;;;4979712;28;20426;-71
2024/01/05 11:38:47;;;;;;;1.77;1.00;;;8.10;99.90;;;;;;4981637;28;20481;-71
2024/01/05 11:41:18;;;;;;;2.60;1.33;;;7.90;99.90;;;;;;4977539;28;20479;-69
2024/01/05 11:43:44;;;;;;;4.13;0.83;;;7.90;99.90;;;;;;4988450;28;20550;-69
2024/01/05 11:46:10;;;;;;;4.93;1.83;;;7.90;99.90;;;;;;4981041;28;20464;-69
2024/01/05 11:48:35;;;;;;;3.30;1.10;;;7.80;99.90;;;;;;4988166;28;20467;-69
2024/01/05 11:51:12;;;;;;;5.00;1.63;;;7.50;99.90;;;;;;4992115;28;20628;-69
2024/01/05 11:53:38;;;;;;;5.23;1.90;;;7.50;99.90;;;;;;4991529;28;20179;-69
2024/01/05 11:56:14;;;;;;;5.37;1.57;;;7.80;99.90;;;;;;4983721;28;20421;-69
2024/01/05 11:58:42;;;;;;;4.70;1.50;;;7.50;99.90;;;;;;4994487;28;20262;-70
2024/01/05 12:01:10;;;;;;;4.00;1.57;;;8.10;99.90;;;;;;4999994;28;20426;-70
2024/01/05 12:03:39;;;;;;;3.77;1.77;;;7.90;99.90;;;;;;5000798;28;20471;-70
2024/01/05 12:06:09;;;;;;;12.40;2.43;;;7.50;99.90;;;;;;4999967;28;20474;-70
2024/01/05 12:08:35;;;;;;;4.03;1.27;;;7.60;99.90;;;;;;5006396;28;20766;-70
2024/01/05 12:11:05;;;;;;;4.50;1.80;;;8.10;99.90;;;;;;5001251;28;20422;-70
2024/01/05 12:13:33;;;;;;;4.50;1.60;;;8.10;99.90;;;;;;4994425;28;20222;-70
2024/01/05 12:16:06;;;;;;;2.07;0.80;;;7.50;99.90;;;;;;4994161;28;20430;-70
2024/01/05 12:18:43;;;;;;;2.77;1.33;;;7.60;99.90;;;;;;4992123;28;20998;-70
2024/01/05 12:21:11;;;;;;;8.50;1.63;;;8.10;99.90;;;;;;4992897;28;20521;-70
2024/01/05 12:23:37;;;;;;;2.80;1.00;;;7.50;99.90;;;;;;4968609;28;20466;-73
2024/01/05 12:26:04;;;;;;;11.00;2.97;;;7.60;99.90;;;;;;4996019;28;20526;-71
2024/01/05 12:28:31;;;;;;;6.57;2.50;;;7.40;99.90;;;;;;5002437;28;20525;-71
2024/01/05 12:30:57;;;;;;;1.97;1.10;;;7.40;99.90;;;;;;4994379;28;20474;-71
2024/01/05 12:33:24;;;;;;;3.00;1.20;;;7.40;99.90;;;;;;4994177;28;20509;-71
2024/01/05 12:35:52;;;;;;;7.07;1.57;;;7.40;99.90;;;;;;4995295;28;20540;-70
2024/01/05 12:38:31;;;;;;;8.50;1.80;;;7.60;99.90;;;;;;4992723;28;20429;-70
2024/01/05 12:41:07;;;;;;;3.67;1.37;;;7.80;99.90;;;;;;4981079;28;20818;-70
2024/01/05 12:43:34;;;;;;;7.23;1.80;;;7.30;99.90;;;;;;5004111;28;20466;-71
2024/01/05 12:46:00;;;;;;;16.13;1.70;;;7.70;99.90;;;;;;4993548;28;20426;-70
2024/01/05 12:48:27;;;;;;;1.97;1.20;;;7.50;99.90;;;;;;4991367;28;20423;-70
2024/01/05 12:51:19;;;;;;;9.73;1.70;;;7.60;99.90;;;;;;4980453;28;20180;-70
2024/01/05 12:53:49;;;;;;;7.50;1.13;;;7.60;99.90;;;;;;4986292;28;20446;-71